createdAt,value
2019-05-11T00:00:29.190Z,12.20
2019-05-11T00:03:00.230Z,12.10
2019-05-11T00:05:32.320Z,12.10
2019-05-11T00:08:03.311Z,12.10
2019-05-11T00:10:35.333Z,12.00
2019-05-11T00:13:07.872Z,12.10
2019-05-11T00:15:38.778Z,12.10
2019-05-11T00:18:09.667Z,12.10
2019-05-11T00:20:40.494Z,12.10
2019-05-11T00:23:11.477Z,12.00
2019-05-11T00:25:42.340Z,12.00
2019-05-11T00:28:13.349Z,12.00
2019-05-11T00:30:44.325Z,12.00
2019-05-11T00:33:15.153Z,12.10
2019-05-11T00:35:46.115Z,12.10
2019-05-11T00:38:17.034Z,12.10
2019-05-11T00:40:48.192Z,12.10
2019-05-11T00:43:19.057Z,12.10
2019-05-11T00:45:49.942Z,12.10
2019-05-11T00:48:20.795Z,12.00
2019-05-11T00:50:51.731Z,12.10
2019-05-11T00:53:23.094Z,12.10
2019-05-11T00:55:54.076Z,12.00
2019-05-11T00:58:24.936Z,12.00
2019-05-11T01:00:55.913Z,12.00
2019-05-11T01:03:27.005Z,11.90
2019-05-11T01:05:57.881Z,12.00
2019-05-11T01:08:28.730Z,11.90
2019-05-11T01:10:59.662Z,11.80
2019-05-11T01:13:30.666Z,11.80
2019-05-11T01:16:02.789Z,11.80
2019-05-11T01:18:33.677Z,11.70
2019-05-11T01:21:04.694Z,11.80
2019-05-11T01:23:35.568Z,11.70
2019-05-11T01:26:06.561Z,11.60
2019-05-11T01:28:37.505Z,11.60
2019-05-11T01:31:08.693Z,11.60
2019-05-11T01:33:39.804Z,11.50
2019-05-11T01:36:10.633Z,11.50
2019-05-11T01:38:41.470Z,11.50
2019-05-11T01:41:12.294Z,11.60
2019-05-11T01:43:43.113Z,11.50
2019-05-11T01:46:13.966Z,11.50
2019-05-11T01:48:44.809Z,11.50
2019-05-11T01:51:15.685Z,11.50
2019-05-11T01:53:48.136Z,11.50
2019-05-11T01:56:19.171Z,11.50
2019-05-11T01:58:50.012Z,11.40
2019-05-11T02:01:20.897Z,11.40
2019-05-11T02:03:51.732Z,11.50
2019-05-11T02:06:22.580Z,11.40
2019-05-11T02:08:53.621Z,11.40
2019-05-11T02:11:25.494Z,11.40
2019-05-11T02:13:56.332Z,11.40
2019-05-11T02:16:27.440Z,11.50
2019-05-11T02:18:58.403Z,11.50
2019-05-11T02:21:29.289Z,11.50
2019-05-11T02:24:00.120Z,11.50
2019-05-11T02:26:30.960Z,11.50
2019-05-11T02:29:01.768Z,11.60
2019-05-11T02:31:32.605Z,11.50
2019-05-11T02:34:03.455Z,11.40
2019-05-11T02:36:34.942Z,11.50
2019-05-11T02:39:07.999Z,11.60
2019-05-11T02:41:38.829Z,11.60
2019-05-11T02:44:09.657Z,11.60
2019-05-11T02:46:40.509Z,11.60
2019-05-11T02:49:11.338Z,11.60
2019-05-11T02:51:42.800Z,11.50
2019-05-11T02:54:13.926Z,11.50
2019-05-11T02:56:44.813Z,11.60
2019-05-11T02:59:15.816Z,11.70
2019-05-11T03:01:46.701Z,11.70
2019-05-11T03:04:17.601Z,11.70
2019-05-11T03:06:49.495Z,11.60
2019-05-11T03:09:20.410Z,11.70
2019-05-11T03:11:55.898Z,11.90
2019-05-11T03:14:24.967Z,11.80
2019-05-11T03:17:12.150Z,11.80
2019-05-11T03:19:43.021Z,11.90
2019-05-11T03:22:14.054Z,11.90
2019-05-11T03:24:45.010Z,11.90
2019-05-11T03:27:15.909Z,12.00
2019-05-11T03:29:46.880Z,12.00
2019-05-11T03:32:17.822Z,12.00
2019-05-11T03:34:48.617Z,12.20
2019-05-11T03:37:20.011Z,12.20
2019-05-11T03:39:51.851Z,12.20
2019-05-11T03:42:22.737Z,12.30
2019-05-11T03:44:53.583Z,12.40
2019-05-11T03:47:24.468Z,12.50
2019-05-11T03:49:55.326Z,12.50
2019-05-11T03:52:26.246Z,12.50
2019-05-11T03:54:57.086Z,12.50
2019-05-11T03:57:27.969Z,12.70
2019-05-11T03:59:58.800Z,12.90
2019-05-11T04:02:29.685Z,12.90
2019-05-11T04:05:00.539Z,13.10
2019-05-11T04:07:32.442Z,13.30
2019-05-11T04:10:05.376Z,13.80
2019-05-11T04:12:36.343Z,14.10
2019-05-11T04:15:07.469Z,13.90
2019-05-11T04:17:38.400Z,13.80
2019-05-11T04:20:09.849Z,13.80
2019-05-11T04:22:40.779Z,13.70
2019-05-11T04:25:12.875Z,13.90
2019-05-11T04:27:43.761Z,14.10
2019-05-11T04:30:14.627Z,14.50
2019-05-11T04:32:45.565Z,14.60
2019-05-11T04:35:16.413Z,14.80
2019-05-11T04:37:47.521Z,14.70
2019-05-11T04:40:18.733Z,14.80
2019-05-11T04:42:55.077Z,14.80
2019-05-11T04:45:22.131Z,15.20
2019-05-11T04:47:53.015Z,15.20
2019-05-11T04:50:23.915Z,15.00
2019-05-11T04:52:55.006Z,15.10
2019-05-11T04:55:25.901Z,15.10
2019-05-11T04:57:56.984Z,14.80
2019-05-11T05:00:29.690Z,14.80
2019-05-11T05:03:00.565Z,15.20
2019-05-11T05:05:31.411Z,15.40
2019-05-11T05:08:09.691Z,15.30
2019-05-11T05:10:34.706Z,15.60
2019-05-11T05:13:10.728Z,15.40
2019-05-11T05:15:38.227Z,15.70
2019-05-11T05:18:09.076Z,15.40
2019-05-11T05:20:43.530Z,15.50
2019-05-11T05:23:12.488Z,15.60
2019-05-11T05:30:43.508Z,15.70
2019-05-11T05:40:44.491Z,16.70
2019-05-11T07:05:48.524Z,16.30
2019-05-11T07:15:50.634Z,20.30
2019-05-11T07:18:21.884Z,19.30
2019-05-11T07:20:53.148Z,19.50
2019-05-11T07:23:24.178Z,19.50
2019-05-11T07:25:55.310Z,19.60
2019-05-11T07:28:26.456Z,19.80
2019-05-11T07:30:57.765Z,19.70
2019-05-11T07:33:28.953Z,20.00
2019-05-11T07:36:01.227Z,20.20
2019-05-11T07:38:32.368Z,20.50
2019-05-11T07:41:04.959Z,20.80
2019-05-11T07:43:38.002Z,20.70
2019-05-11T07:46:08.742Z,20.50
2019-05-11T07:48:39.861Z,20.70
2019-05-11T07:53:41.181Z,20.70
2019-05-11T08:08:44.024Z,21.00
2019-05-11T08:11:14.907Z,20.20
2019-05-11T08:13:48.138Z,20.60
2019-05-11T08:16:18.960Z,20.70
2019-05-11T08:18:50.196Z,20.70
2019-05-11T08:21:21.149Z,20.70
2019-05-11T08:23:52.349Z,20.60
2019-05-11T08:26:24.563Z,20.70
2019-05-11T08:28:57.887Z,21.30
2019-05-11T08:31:28.336Z,20.80
2019-05-11T08:33:59.586Z,21.50
2019-05-11T08:36:30.749Z,21.50
2019-05-11T08:39:02.073Z,21.50
2019-05-11T08:41:33.651Z,21.40
2019-05-11T08:44:05.025Z,21.40
2019-05-11T08:46:38.362Z,20.80
2019-05-11T08:49:09.156Z,20.70
2019-05-11T08:51:40.445Z,20.50
2019-05-11T08:54:11.281Z,20.60
2019-05-11T08:56:42.455Z,20.70
2019-05-11T08:59:13.575Z,20.50
2019-05-11T09:01:44.882Z,20.10
2019-05-11T09:04:18.162Z,20.00
2019-05-11T09:06:48.852Z,19.90
2019-05-11T09:09:20.018Z,19.90
2019-05-11T09:11:51.190Z,19.90
2019-05-11T09:14:22.408Z,20.40
2019-05-11T09:16:54.986Z,20.40
2019-05-11T09:19:28.237Z,20.30
2019-05-11T09:21:59.071Z,20.90
2019-05-11T09:24:30.245Z,20.70
2019-05-11T09:27:01.677Z,20.80
2019-05-11T09:29:33.066Z,20.60
2019-05-11T09:32:04.355Z,20.50
2019-05-11T09:34:37.659Z,20.70
2019-05-11T09:37:08.102Z,20.60
2019-05-11T09:39:39.286Z,20.70
2019-05-11T09:42:10.349Z,21.00
2019-05-11T09:44:41.472Z,21.20
2019-05-11T09:47:12.825Z,21.00
2019-05-11T09:49:48.044Z,21.00
2019-05-11T09:52:18.359Z,20.80
2019-05-11T09:54:49.753Z,20.60
2019-05-11T09:57:20.910Z,20.50
2019-05-11T10:02:24.391Z,20.10
2019-05-11T10:04:57.673Z,19.60
2019-05-11T10:07:28.635Z,19.80
2019-05-11T11:42:40.401Z,19.60
2019-05-11T11:52:45.010Z,17.30
2019-05-11T14:43:13.737Z,16.30
2019-05-11T14:45:44.733Z,14.20
2019-05-11T15:50:51.737Z,14.00
2019-05-11T16:25:54.882Z,12.80
2019-05-11T16:31:09.453Z,13.00
2019-05-11T16:33:41.304Z,12.90
2019-05-11T16:36:12.191Z,12.90
2019-05-11T16:38:43.089Z,13.00
2019-05-11T16:41:14.028Z,13.10
2019-05-11T16:43:44.948Z,13.00
2019-05-11T16:46:17.626Z,12.90
2019-05-11T16:48:48.603Z,12.90
2019-05-11T16:51:20.916Z,12.80
2019-05-11T16:53:51.796Z,12.80
2019-05-11T16:56:22.706Z,12.90
2019-05-11T17:01:25.140Z,12.90
2019-05-11T17:06:28.557Z,12.70
2019-05-11T17:09:00.064Z,12.60
2019-05-11T17:11:31.037Z,12.30
2019-05-11T17:14:01.897Z,12.40
2019-05-11T17:16:32.769Z,12.30
2019-05-11T17:19:03.617Z,12.30
2019-05-11T17:21:34.489Z,12.30
2019-05-11T17:31:37.605Z,12.40
2019-05-11T17:34:09.026Z,12.20
2019-05-11T17:36:40.120Z,12.10
2019-05-11T17:39:10.945Z,12.10
2019-05-11T17:41:41.800Z,12.10
2019-05-11T17:44:12.629Z,12.10
2019-05-11T17:49:13.506Z,12.20
2019-05-11T17:54:14.388Z,12.10
2019-05-11T17:59:15.257Z,12.10
2019-05-11T18:01:46.196Z,12.30
2019-05-11T18:04:18.453Z,12.00
2019-05-11T18:06:49.471Z,12.20
2019-05-11T18:09:20.363Z,12.20
2019-05-11T18:11:51.209Z,12.20
2019-05-11T18:14:22.068Z,12.00
2019-05-11T18:16:52.967Z,11.70
2019-05-11T18:19:23.901Z,12.00
2019-05-11T18:24:24.781Z,11.80
2019-05-11T18:26:55.651Z,11.90
2019-05-11T18:29:28.628Z,12.10
2019-05-11T18:32:00.469Z,11.90
2019-05-11T18:34:31.309Z,11.70
2019-05-11T18:37:02.179Z,11.50
2019-05-11T18:42:03.094Z,11.60
2019-05-11T18:44:33.976Z,11.90
2019-05-11T18:47:04.879Z,12.00
2019-05-11T18:49:37.580Z,12.10
2019-05-11T18:52:08.438Z,12.10
2019-05-11T18:54:39.421Z,12.10
2019-05-11T18:57:10.398Z,12.20
2019-05-11T18:59:41.309Z,12.20
2019-05-11T19:02:13.192Z,12.20
2019-05-11T19:07:17.135Z,12.20
2019-05-11T19:09:48.487Z,12.10
2019-05-11T19:12:19.296Z,12.20
2019-05-11T19:14:50.145Z,12.20
2019-05-11T19:17:21.056Z,12.30
2019-05-11T19:19:51.941Z,12.20
2019-05-11T19:22:22.852Z,12.30
2019-05-11T19:24:55.006Z,12.30
2019-05-11T19:27:25.879Z,12.30
2019-05-11T19:29:56.804Z,12.30
2019-05-11T19:32:28.278Z,12.30
2019-05-11T19:34:59.302Z,12.20
2019-05-11T19:37:31.184Z,11.90
2019-05-11T19:40:02.170Z,11.80
2019-05-11T19:42:54.626Z,11.60
2019-05-11T19:45:28.563Z,11.50
2019-05-11T19:47:58.689Z,11.50
2019-05-11T19:50:29.562Z,11.60
2019-05-11T19:53:00.414Z,11.60
2019-05-11T19:55:31.285Z,11.60
2019-05-11T19:58:02.211Z,11.60
2019-05-11T20:05:33.164Z,11.60
2019-05-11T20:10:34.992Z,11.50
2019-05-11T20:18:08.001Z,11.50
2019-05-11T20:23:09.042Z,11.50
2019-05-11T20:25:39.859Z,11.40
2019-05-11T20:33:10.979Z,11.40
2019-05-11T20:45:41.858Z,11.40
2019-05-11T20:48:12.813Z,11.00
2019-05-11T20:50:43.649Z,10.90
2019-05-11T20:53:14.675Z,10.90
2019-05-11T20:55:47.626Z,11.00
2019-05-11T20:58:18.807Z,11.10
2019-05-11T21:00:51.020Z,11.00
2019-05-11T21:03:22.352Z,11.00
2019-05-11T21:05:53.239Z,11.00
2019-05-11T21:08:24.140Z,11.10
2019-05-11T21:13:25.109Z,11.00
2019-05-11T21:15:56.035Z,11.00
2019-05-11T21:18:28.782Z,11.00
2019-05-11T21:20:59.375Z,11.00
2019-05-11T21:23:30.270Z,11.00
2019-05-11T21:26:01.132Z,10.90
2019-05-11T21:28:32.026Z,10.90
2019-05-11T21:31:02.983Z,10.90
2019-05-11T21:36:04.670Z,10.90
2019-05-11T21:38:35.636Z,11.00
2019-05-11T21:41:08.622Z,11.20
2019-05-11T21:43:39.097Z,11.30
2019-05-11T21:46:10.333Z,11.30
2019-05-11T21:48:41.240Z,11.30
2019-05-11T21:53:42.112Z,11.30
2019-05-11T21:56:12.959Z,11.10
2019-05-11T22:01:14.229Z,11.20
2019-05-11T22:03:47.728Z,11.20
2019-05-11T22:08:50.769Z,11.30
2019-05-11T22:11:20.846Z,11.30
2019-05-11T22:23:53.187Z,11.30
2019-05-11T22:51:29.136Z,11.30
2019-05-11T22:53:59.978Z,11.30
2019-05-11T22:59:00.847Z,11.30
2019-05-11T23:06:31.790Z,11.20
2019-05-11T23:09:02.738Z,11.00
2019-05-11T23:14:04.387Z,10.90
2019-05-11T23:21:35.888Z,10.80
2019-05-11T23:26:39.936Z,10.60
2019-05-11T23:29:11.094Z,10.50
2019-05-11T23:31:41.957Z,10.50
